sensor_id;sensor_type;location;lat;lon;timestamp;P1;durP1;ratioP1;P2;durP2;ratioP2
5995;SDS011;3026;53.612;7.278;2023-11-21T00:00:45;20.73;;;6.23;;
5995;SDS011;3026;53.612;7.278;2023-11-21T00:03:19;16.33;;;5.10;;
5995;SDS011;3026;53.612;7.278;2023-11-21T00:05:48;19.07;;;5.37;;
5995;SDS011;3026;53.612;7.278;2023-11-21T00:08:16;20.23;;;6.07;;
5995;SDS011;3026;53.612;7.278;2023-11-21T00:10:43;12.00;;;4.67;;
5995;SDS011;3026;53.612;7.278;2023-11-21T00:13:11;17.53;;;6.07;;
5995;SDS011;3026;53.612;7.278;2023-11-21T00:15:38;14.97;;;4.90;;
5995;SDS011;3026;53.612;7.278;2023-11-21T00:18:06;13.63;;;4.80;;
5995;SDS011;3026;53.612;7.278;2023-11-21T00:20:35;15.97;;;4.43;;
5995;SDS011;3026;53.612;7.278;2023-11-21T00:23:03;20.30;;;5.00;;
5995;SDS011;3026;53.612;7.278;2023-11-21T00:25:30;17.30;;;5.10;;
5995;SDS011;3026;53.612;7.278;2023-11-21T00:27:57;9.03;;;4.20;;
5995;SDS011;3026;53.612;7.278;2023-11-21T00:30:25;15.00;;;4.50;;
5995;SDS011;3026;53.612;7.278;2023-11-21T00:32:53;12.10;;;5.20;;
5995;SDS011;3026;53.612;7.278;2023-11-21T00:35:20;11.40;;;4.63;;
5995;SDS011;3026;53.612;7.278;2023-11-21T00:37:50;10.60;;;4.60;;
5995;SDS011;3026;53.612;7.278;2023-11-21T00:40:17;21.67;;;5.30;;
5995;SDS011;3026;53.612;7.278;2023-11-21T00:42:49;16.50;;;4.60;;
5995;SDS011;3026;53.612;7.278;2023-11-21T00:45:21;12.93;;;4.17;;
5995;SDS011;3026;53.612;7.278;2023-11-21T00:47:49;19.80;;;5.33;;
5995;SDS011;3026;53.612;7.278;2023-11-21T00:50:19;14.90;;;5.03;;
5995;SDS011;3026;53.612;7.278;2023-11-21T00:52:49;18.33;;;5.40;;
5995;SDS011;3026;53.612;7.278;2023-11-21T00:55:16;19.80;;;5.80;;
5995;SDS011;3026;53.612;7.278;2023-11-21T00:57:44;12.90;;;4.83;;
5995;SDS011;3026;53.612;7.278;2023-11-21T01:00:11;24.00;;;5.80;;
5995;SDS011;3026;53.612;7.278;2023-11-21T01:02:42;12.23;;;5.30;;
5995;SDS011;3026;53.612;7.278;2023-11-21T01:05:10;19.23;;;5.50;;
5995;SDS011;3026;53.612;7.278;2023-11-21T01:07:37;13.40;;;4.80;;
5995;SDS011;3026;53.612;7.278;2023-11-21T01:10:07;19.83;;;4.87;;
5995;SDS011;3026;53.612;7.278;2023-11-21T01:12:35;13.53;;;4.20;;
5995;SDS011;3026;53.612;7.278;2023-11-21T01:15:03;14.73;;;4.53;;
5995;SDS011;3026;53.612;7.278;2023-11-21T01:17:33;18.53;;;5.50;;
5995;SDS011;3026;53.612;7.278;2023-11-21T01:20:00;15.37;;;5.97;;
5995;SDS011;3026;53.612;7.278;2023-11-21T01:22:28;19.83;;;5.10;;
5995;SDS011;3026;53.612;7.278;2023-11-21T01:24:55;17.63;;;5.77;;
5995;SDS011;3026;53.612;7.278;2023-11-21T01:27:24;17.17;;;5.43;;
5995;SDS011;3026;53.612;7.278;2023-11-21T01:29:53;16.67;;;6.50;;
5995;SDS011;3026;53.612;7.278;2023-11-21T01:32:20;23.27;;;4.73;;
5995;SDS011;3026;53.612;7.278;2023-11-21T01:34:47;22.53;;;6.17;;
5995;SDS011;3026;53.612;7.278;2023-11-21T01:37:16;15.57;;;5.00;;
5995;SDS011;3026;53.612;7.278;2023-11-21T01:39:44;17.37;;;5.87;;
5995;SDS011;3026;53.612;7.278;2023-11-21T01:42:12;20.00;;;6.50;;
5995;SDS011;3026;53.612;7.278;2023-11-21T01:44:41;24.07;;;6.33;;
5995;SDS011;3026;53.612;7.278;2023-11-21T01:47:08;17.20;;;5.50;;
5995;SDS011;3026;53.612;7.278;2023-11-21T01:49:36;16.27;;;4.97;;
5995;SDS011;3026;53.612;7.278;2023-11-21T01:52:04;14.97;;;4.77;;
5995;SDS011;3026;53.612;7.278;2023-11-21T01:54:34;10.50;;;4.80;;
5995;SDS011;3026;53.612;7.278;2023-11-21T01:57:02;13.20;;;3.77;;
5995;SDS011;3026;53.612;7.278;2023-11-21T01:59:33;10.13;;;4.10;;
5995;SDS011;3026;53.612;7.278;2023-11-21T02:02:03;8.80;;;3.80;;
5995;SDS011;3026;53.612;7.278;2023-11-21T02:04:32;6.13;;;3.27;;
5995;SDS011;3026;53.612;7.278;2023-11-21T02:07:00;8.20;;;3.77;;
5995;SDS011;3026;53.612;7.278;2023-11-21T02:09:28;11.57;;;4.13;;
5995;SDS011;3026;53.612;7.278;2023-11-21T02:11:56;6.03;;;3.77;;
5995;SDS011;3026;53.612;7.278;2023-11-21T02:14:25;11.93;;;4.50;;
5995;SDS011;3026;53.612;7.278;2023-11-21T02:16:53;8.50;;;4.67;;
5995;SDS011;3026;53.612;7.278;2023-11-21T02:19:24;9.17;;;4.87;;
5995;SDS011;3026;53.612;7.278;2023-11-21T02:21:52;9.13;;;5.03;;
5995;SDS011;3026;53.612;7.278;2023-11-21T02:24:23;6.70;;;4.83;;
5995;SDS011;3026;53.612;7.278;2023-11-21T02:26:50;9.63;;;4.97;;
5995;SDS011;3026;53.612;7.278;2023-11-21T02:29:18;7.93;;;5.13;;
5995;SDS011;3026;53.612;7.278;2023-11-21T02:31:47;8.90;;;5.20;;
5995;SDS011;3026;53.612;7.278;2023-11-21T02:34:15;9.17;;;5.33;;
5995;SDS011;3026;53.612;7.278;2023-11-21T02:36:42;8.03;;;4.97;;
5995;SDS011;3026;53.612;7.278;2023-11-21T02:39:09;6.73;;;4.23;;
5995;SDS011;3026;53.612;7.278;2023-11-21T02:41:38;8.20;;;5.23;;
5995;SDS011;3026;53.612;7.278;2023-11-21T02:44:06;12.47;;;6.97;;
5995;SDS011;3026;53.612;7.278;2023-11-21T02:46:33;12.13;;;7.37;;
5995;SDS011;3026;53.612;7.278;2023-11-21T02:49:00;12.20;;;7.87;;
5995;SDS011;3026;53.612;7.278;2023-11-21T02:51:28;14.13;;;9.17;;
5995;SDS011;3026;53.612;7.278;2023-11-21T02:53:55;15.07;;;8.40;;
5995;SDS011;3026;53.612;7.278;2023-11-21T02:56:26;15.23;;;9.50;;
5995;SDS011;3026;53.612;7.278;2023-11-21T02:58:59;18.03;;;9.97;;
5995;SDS011;3026;53.612;7.278;2023-11-21T03:01:26;17.03;;;10.43;;
5995;SDS011;3026;53.612;7.278;2023-11-21T03:03:55;19.60;;;11.73;;
5995;SDS011;3026;53.612;7.278;2023-11-21T03:06:22;21.87;;;12.50;;
5995;SDS011;3026;53.612;7.278;2023-11-21T03:08:50;22.23;;;12.50;;
5995;SDS011;3026;53.612;7.278;2023-11-21T03:11:17;25.47;;;13.07;;
5995;SDS011;3026;53.612;7.278;2023-11-21T03:13:44;27.87;;;13.83;;
5995;SDS011;3026;53.612;7.278;2023-11-21T03:16:14;27.83;;;13.80;;
5995;SDS011;3026;53.612;7.278;2023-11-21T03:18:42;27.10;;;13.43;;
5995;SDS011;3026;53.612;7.278;2023-11-21T03:21:09;23.23;;;12.80;;
5995;SDS011;3026;53.612;7.278;2023-11-21T03:23:36;24.73;;;11.93;;
5995;SDS011;3026;53.612;7.278;2023-11-21T03:26:04;25.47;;;12.77;;
5995;SDS011;3026;53.612;7.278;2023-11-21T03:28:36;19.00;;;11.33;;
5995;SDS011;3026;53.612;7.278;2023-11-21T03:31:03;19.17;;;12.00;;
5995;SDS011;3026;53.612;7.278;2023-11-21T03:33:34;22.07;;;11.37;;
5995;SDS011;3026;53.612;7.278;2023-11-21T03:36:01;25.07;;;12.27;;
5995;SDS011;3026;53.612;7.278;2023-11-21T03:38:29;19.43;;;11.30;;
5995;SDS011;3026;53.612;7.278;2023-11-21T03:40:56;26.43;;;13.07;;
5995;SDS011;3026;53.612;7.278;2023-11-21T03:43:23;22.57;;;12.03;;
5995;SDS011;3026;53.612;7.278;2023-11-21T03:45:51;24.30;;;12.23;;
5995;SDS011;3026;53.612;7.278;2023-11-21T03:48:18;20.93;;;12.10;;
5995;SDS011;3026;53.612;7.278;2023-11-21T03:50:46;21.20;;;10.93;;
5995;SDS011;3026;53.612;7.278;2023-11-21T03:53:14;18.40;;;10.87;;
5995;SDS011;3026;53.612;7.278;2023-11-21T03:55:41;17.77;;;10.33;;
5995;SDS011;3026;53.612;7.278;2023-11-21T03:58:08;17.97;;;10.93;;
5995;SDS011;3026;53.612;7.278;2023-11-21T04:00:35;17.80;;;10.67;;
5995;SDS011;3026;53.612;7.278;2023-11-21T04:03:03;16.60;;;9.83;;
5995;SDS011;3026;53.612;7.278;2023-11-21T04:05:30;18.33;;;10.17;;
5995;SDS011;3026;53.612;7.278;2023-11-21T04:08:00;18.13;;;10.60;;
5995;SDS011;3026;53.612;7.278;2023-11-21T04:10:27;19.17;;;10.77;;
5995;SDS011;3026;53.612;7.278;2023-11-21T04:12:55;20.50;;;11.60;;
5995;SDS011;3026;53.612;7.278;2023-11-21T04:15:22;17.17;;;10.90;;
5995;SDS011;3026;53.612;7.278;2023-11-21T04:17:49;17.90;;;10.33;;
5995;SDS011;3026;53.612;7.278;2023-11-21T04:20:16;16.60;;;10.67;;
5995;SDS011;3026;53.612;7.278;2023-11-21T04:22:44;17.37;;;10.63;;
5995;SDS011;3026;53.612;7.278;2023-11-21T04:25:13;18.93;;;11.40;;
5995;SDS011;3026;53.612;7.278;2023-11-21T04:27:40;21.30;;;11.50;;
5995;SDS011;3026;53.612;7.278;2023-11-21T04:30:09;16.50;;;11.17;;
5995;SDS011;3026;53.612;7.278;2023-11-21T04:32:36;15.37;;;9.97;;
5995;SDS011;3026;53.612;7.278;2023-11-21T04:35:04;16.80;;;9.87;;
5995;SDS011;3026;53.612;7.278;2023-11-21T04:37:34;16.17;;;10.33;;
5995;SDS011;3026;53.612;7.278;2023-11-21T04:40:01;13.43;;;9.60;;
5995;SDS011;3026;53.612;7.278;2023-11-21T04:42:33;15.67;;;9.97;;
5995;SDS011;3026;53.612;7.278;2023-11-21T04:45:01;15.33;;;8.80;;
5995;SDS011;3026;53.612;7.278;2023-11-21T04:47:33;18.07;;;10.23;;
5995;SDS011;3026;53.612;7.278;2023-11-21T04:50:00;13.07;;;9.57;;
5995;SDS011;3026;53.612;7.278;2023-11-21T04:52:27;16.03;;;10.70;;
5995;SDS011;3026;53.612;7.278;2023-11-21T04:54:54;16.33;;;10.30;;
5995;SDS011;3026;53.612;7.278;2023-11-21T04:57:23;16.67;;;9.90;;
5995;SDS011;3026;53.612;7.278;2023-11-21T04:59:52;14.63;;;9.57;;
5995;SDS011;3026;53.612;7.278;2023-11-21T05:02:19;16.00;;;10.03;;
5995;SDS011;3026;53.612;7.278;2023-11-21T05:04:47;12.53;;;8.30;;
5995;SDS011;3026;53.612;7.278;2023-11-21T05:07:14;15.23;;;9.23;;
5995;SDS011;3026;53.612;7.278;2023-11-21T05:09:41;12.13;;;9.10;;
5995;SDS011;3026;53.612;7.278;2023-11-21T05:12:14;18.97;;;9.73;;
5995;SDS011;3026;53.612;7.278;2023-11-21T05:14:41;16.23;;;9.67;;
5995;SDS011;3026;53.612;7.278;2023-11-21T05:17:11;18.80;;;10.30;;
5995;SDS011;3026;53.612;7.278;2023-11-21T05:19:38;16.10;;;9.67;;
5995;SDS011;3026;53.612;7.278;2023-11-21T05:22:05;15.47;;;10.30;;
5995;SDS011;3026;53.612;7.278;2023-11-21T05:24:33;19.57;;;11.17;;
5995;SDS011;3026;53.612;7.278;2023-11-21T05:27:03;17.63;;;11.00;;
5995;SDS011;3026;53.612;7.278;2023-11-21T05:29:30;19.17;;;11.57;;
5995;SDS011;3026;53.612;7.278;2023-11-21T05:31:58;20.13;;;11.77;;
5995;SDS011;3026;53.612;7.278;2023-11-21T05:34:26;16.50;;;11.17;;
5995;SDS011;3026;53.612;7.278;2023-11-21T05:36:53;19.70;;;11.47;;
5995;SDS011;3026;53.612;7.278;2023-11-21T05:39:23;17.93;;;12.20;;
5995;SDS011;3026;53.612;7.278;2023-11-21T05:41:50;20.50;;;13.37;;
5995;SDS011;3026;53.612;7.278;2023-11-21T05:44:18;19.10;;;13.57;;
5995;SDS011;3026;53.612;7.278;2023-11-21T05:46:45;23.20;;;13.33;;
5995;SDS011;3026;53.612;7.278;2023-11-21T05:49:12;17.07;;;12.70;;
5995;SDS011;3026;53.612;7.278;2023-11-21T05:51:41;20.17;;;13.00;;
5995;SDS011;3026;53.612;7.278;2023-11-21T05:54:08;16.53;;;12.20;;
5995;SDS011;3026;53.612;7.278;2023-11-21T05:56:35;19.10;;;13.03;;
5995;SDS011;3026;53.612;7.278;2023-11-21T05:59:03;18.20;;;11.47;;
5995;SDS011;3026;53.612;7.278;2023-11-21T06:01:31;18.90;;;12.27;;
5995;SDS011;3026;53.612;7.278;2023-11-21T06:04:01;16.33;;;11.40;;
5995;SDS011;3026;53.612;7.278;2023-11-21T06:06:28;14.70;;;10.07;;
5995;SDS011;3026;53.612;7.278;2023-11-21T06:08:59;16.27;;;11.20;;
5995;SDS011;3026;53.612;7.278;2023-11-21T06:11:26;15.93;;;11.07;;
5995;SDS011;3026;53.612;7.278;2023-11-21T06:13:53;15.57;;;10.87;;
5995;SDS011;3026;53.612;7.278;2023-11-21T06:16:20;17.27;;;10.13;;
5995;SDS011;3026;53.612;7.278;2023-11-21T06:18:48;15.50;;;10.17;;
5995;SDS011;3026;53.612;7.278;2023-11-21T06:21:14;15.00;;;10.43;;
5995;SDS011;3026;53.612;7.278;2023-11-21T06:23:43;13.37;;;10.10;;
5995;SDS011;3026;53.612;7.278;2023-11-21T06:26:12;13.63;;;10.30;;
5995;SDS011;3026;53.612;7.278;2023-11-21T06:28:39;16.53;;;10.80;;
5995;SDS011;3026;53.612;7.278;2023-11-21T06:31:06;13.73;;;9.77;;
5995;SDS011;3026;53.612;7.278;2023-11-21T06:33:34;17.33;;;9.73;;
5995;SDS011;3026;53.612;7.278;2023-11-21T06:36:01;15.00;;;10.30;;
5995;SDS011;3026;53.612;7.278;2023-11-21T06:38:28;13.90;;;10.17;;
5995;SDS011;3026;53.612;7.278;2023-11-21T06:40:57;13.80;;;10.17;;
5995;SDS011;3026;53.612;7.278;2023-11-21T06:43:29;13.77;;;10.20;;
5995;SDS011;3026;53.612;7.278;2023-11-21T06:45:56;14.27;;;9.80;;
5995;SDS011;3026;53.612;7.278;2023-11-21T06:48:23;13.83;;;10.77;;
5995;SDS011;3026;53.612;7.278;2023-11-21T06:50:50;12.43;;;9.53;;
5995;SDS011;3026;53.612;7.278;2023-11-21T06:53:18;12.20;;;9.50;;
5995;SDS011;3026;53.612;7.278;2023-11-21T06:55:45;13.60;;;9.93;;
5995;SDS011;3026;53.612;7.278;2023-11-21T06:58:12;13.67;;;9.23;;
5995;SDS011;3026;53.612;7.278;2023-11-21T07:00:42;12.93;;;10.00;;
5995;SDS011;3026;53.612;7.278;2023-11-21T07:03:14;10.43;;;8.53;;
5995;SDS011;3026;53.612;7.278;2023-11-21T07:05:41;12.27;;;8.87;;
5995;SDS011;3026;53.612;7.278;2023-11-21T07:08:09;11.87;;;8.30;;
5995;SDS011;3026;53.612;7.278;2023-11-21T07:10:36;11.60;;;8.13;;
5995;SDS011;3026;53.612;7.278;2023-11-21T07:13:03;14.03;;;8.40;;
5995;SDS011;3026;53.612;7.278;2023-11-21T07:15:32;14.43;;;8.00;;
5995;SDS011;3026;53.612;7.278;2023-11-21T07:18:01;11.57;;;7.20;;
5995;SDS011;3026;53.612;7.278;2023-11-21T07:20:28;9.67;;;7.33;;
5995;SDS011;3026;53.612;7.278;2023-11-21T07:22:55;10.87;;;7.87;;
5995;SDS011;3026;53.612;7.278;2023-11-21T07:25:23;12.33;;;8.30;;
5995;SDS011;3026;53.612;7.278;2023-11-21T07:27:50;10.33;;;7.73;;
5995;SDS011;3026;53.612;7.278;2023-11-21T07:30:18;10.03;;;7.23;;
5995;SDS011;3026;53.612;7.278;2023-11-21T07:32:45;10.30;;;8.07;;
5995;SDS011;3026;53.612;7.278;2023-11-21T07:35:15;10.37;;;7.67;;
5995;SDS011;3026;53.612;7.278;2023-11-21T07:37:43;12.20;;;8.13;;
5995;SDS011;3026;53.612;7.278;2023-11-21T07:40:10;12.90;;;8.17;;
5995;SDS011;3026;53.612;7.278;2023-11-21T07:42:39;14.43;;;8.43;;
5995;SDS011;3026;53.612;7.278;2023-11-21T07:45:08;9.53;;;7.63;;
5995;SDS011;3026;53.612;7.278;2023-11-21T07:47:35;10.90;;;8.33;;
5995;SDS011;3026;53.612;7.278;2023-11-21T07:50:04;10.57;;;7.90;;
5995;SDS011;3026;53.612;7.278;2023-11-21T07:52:34;11.07;;;8.83;;
5995;SDS011;3026;53.612;7.278;2023-11-21T07:55:01;11.13;;;8.27;;
5995;SDS011;3026;53.612;7.278;2023-11-21T07:57:29;11.50;;;8.23;;
5995;SDS011;3026;53.612;7.278;2023-11-21T07:59:56;12.33;;;8.30;;
5995;SDS011;3026;53.612;7.278;2023-11-21T08:02:23;16.13;;;8.27;;
5995;SDS011;3026;53.612;7.278;2023-11-21T08:04:51;12.63;;;7.60;;
5995;SDS011;3026;53.612;7.278;2023-11-21T08:07:18;11.97;;;8.47;;
5995;SDS011;3026;53.612;7.278;2023-11-21T08:09:47;13.67;;;8.47;;
5995;SDS011;3026;53.612;7.278;2023-11-21T08:12:15;11.60;;;7.73;;
5995;SDS011;3026;53.612;7.278;2023-11-21T08:14:42;14.57;;;9.43;;
5995;SDS011;3026;53.612;7.278;2023-11-21T08:17:10;12.17;;;8.37;;
5995;SDS011;3026;53.612;7.278;2023-11-21T08:19:39;10.90;;;8.20;;
5995;SDS011;3026;53.612;7.278;2023-11-21T08:22:06;11.40;;;8.17;;
5995;SDS011;3026;53.612;7.278;2023-11-21T08:24:34;11.23;;;8.13;;
5995;SDS011;3026;53.612;7.278;2023-11-21T08:27:03;12.80;;;9.20;;
5995;SDS011;3026;53.612;7.278;2023-11-21T08:29:31;11.20;;;8.80;;
5995;SDS011;3026;53.612;7.278;2023-11-21T08:31:59;10.67;;;7.87;;
5995;SDS011;3026;53.612;7.278;2023-11-21T08:34:26;11.17;;;7.83;;
5995;SDS011;3026;53.612;7.278;2023-11-21T08:36:54;11.60;;;8.13;;
5995;SDS011;3026;53.612;7.278;2023-11-21T08:39:22;9.93;;;7.63;;
5995;SDS011;3026;53.612;7.278;2023-11-21T08:41:50;11.73;;;8.40;;
5995;SDS011;3026;53.612;7.278;2023-11-21T08:44:18;11.73;;;7.97;;
5995;SDS011;3026;53.612;7.278;2023-11-21T08:46:45;11.93;;;7.87;;
5995;SDS011;3026;53.612;7.278;2023-11-21T08:49:13;10.67;;;7.53;;
5995;SDS011;3026;53.612;7.278;2023-11-21T08:51:40;11.17;;;7.53;;
5995;SDS011;3026;53.612;7.278;2023-11-21T08:54:07;11.90;;;7.83;;
5995;SDS011;3026;53.612;7.278;2023-11-21T08:56:34;13.30;;;8.33;;
5995;SDS011;3026;53.612;7.278;2023-11-21T08:59:03;11.40;;;8.00;;
5995;SDS011;3026;53.612;7.278;2023-11-21T09:01:31;11.17;;;8.17;;
5995;SDS011;3026;53.612;7.278;2023-11-21T09:03:58;13.63;;;8.67;;
5995;SDS011;3026;53.612;7.278;2023-11-21T09:06:25;10.47;;;7.93;;
5995;SDS011;3026;53.612;7.278;2023-11-21T09:08:52;11.90;;;8.23;;
5995;SDS011;3026;53.612;7.278;2023-11-21T09:11:20;11.10;;;8.13;;
5995;SDS011;3026;53.612;7.278;2023-11-21T09:13:47;10.57;;;7.93;;
5995;SDS011;3026;53.612;7.278;2023-11-21T09:16:16;13.70;;;8.73;;
5995;SDS011;3026;53.612;7.278;2023-11-21T09:18:46;12.90;;;9.13;;
5995;SDS011;3026;53.612;7.278;2023-11-21T09:21:13;13.37;;;8.33;;
5995;SDS011;3026;53.612;7.278;2023-11-21T09:23:40;16.23;;;9.23;;
5995;SDS011;3026;53.612;7.278;2023-11-21T09:26:07;16.17;;;9.57;;
5995;SDS011;3026;53.612;7.278;2023-11-21T09:28:35;13.23;;;8.67;;
5995;SDS011;3026;53.612;7.278;2023-11-21T09:31:04;11.00;;;8.30;;
5995;SDS011;3026;53.612;7.278;2023-11-21T09:33:35;11.57;;;8.40;;
5995;SDS011;3026;53.612;7.278;2023-11-21T09:36:10;10.37;;;7.70;;
5995;SDS011;3026;53.612;7.278;2023-11-21T09:38:39;11.73;;;8.23;;
5995;SDS011;3026;53.612;7.278;2023-11-21T09:41:09;12.17;;;8.03;;
5995;SDS011;3026;53.612;7.278;2023-11-21T09:43:45;13.83;;;9.17;;
5995;SDS011;3026;53.612;7.278;2023-11-21T09:46:14;14.73;;;8.47;;
5995;SDS011;3026;53.612;7.278;2023-11-21T09:48:47;10.93;;;7.77;;
5995;SDS011;3026;53.612;7.278;2023-11-21T09:51:20;13.20;;;8.53;;
5995;SDS011;3026;53.612;7.278;2023-11-21T09:53:55;10.67;;;8.47;;
5995;SDS011;3026;53.612;7.278;2023-11-21T09:56:26;16.17;;;8.67;;
5995;SDS011;3026;53.612;7.278;2023-11-21T09:58:55;15.73;;;9.03;;
5995;SDS011;3026;53.612;7.278;2023-11-21T10:01:24;10.47;;;7.57;;
5995;SDS011;3026;53.612;7.278;2023-11-21T10:03:52;8.37;;;6.87;;
5995;SDS011;3026;53.612;7.278;2023-11-21T10:06:22;10.23;;;6.67;;
5995;SDS011;3026;53.612;7.278;2023-11-21T10:08:52;8.93;;;6.80;;
5995;SDS011;3026;53.612;7.278;2023-11-21T10:11:22;7.17;;;5.83;;
5995;SDS011;3026;53.612;7.278;2023-11-21T10:13:52;8.63;;;6.00;;
5995;SDS011;3026;53.612;7.278;2023-11-21T10:16:22;9.63;;;6.43;;
5995;SDS011;3026;53.612;7.278;2023-11-21T10:18:52;9.00;;;6.33;;
5995;SDS011;3026;53.612;7.278;2023-11-21T10:21:23;12.73;;;6.00;;
5995;SDS011;3026;53.612;7.278;2023-11-21T10:23:52;9.23;;;6.40;;
5995;SDS011;3026;53.612;7.278;2023-11-21T10:26:21;10.10;;;6.17;;
5995;SDS011;3026;53.612;7.278;2023-11-21T10:28:55;10.83;;;6.00;;
5995;SDS011;3026;53.612;7.278;2023-11-21T10:31:25;10.40;;;6.80;;
5995;SDS011;3026;53.612;7.278;2023-11-21T10:33:53;8.33;;;6.13;;
5995;SDS011;3026;53.612;7.278;2023-11-21T10:39:03;8.23;;;6.40;;
5995;SDS011;3026;53.612;7.278;2023-11-21T10:41:31;8.97;;;5.80;;
5995;SDS011;3026;53.612;7.278;2023-11-21T10:44:00;9.27;;;5.00;;
5995;SDS011;3026;53.612;7.278;2023-11-21T10:46:29;6.37;;;5.03;;
5995;SDS011;3026;53.612;7.278;2023-11-21T10:48:56;8.00;;;4.77;;
5995;SDS011;3026;53.612;7.278;2023-11-21T10:51:25;6.90;;;4.50;;
5995;SDS011;3026;53.612;7.278;2023-11-21T10:53:53;8.60;;;5.60;;
5995;SDS011;3026;53.612;7.278;2023-11-21T10:56:23;9.90;;;6.13;;
5995;SDS011;3026;53.612;7.278;2023-11-21T10:58:50;10.50;;;5.90;;
5995;SDS011;3026;53.612;7.278;2023-11-21T11:01:18;8.77;;;6.30;;
5995;SDS011;3026;53.612;7.278;2023-11-21T11:03:47;7.53;;;5.87;;
5995;SDS011;3026;53.612;7.278;2023-11-21T11:06:15;7.40;;;5.93;;
5995;SDS011;3026;53.612;7.278;2023-11-21T11:08:43;8.63;;;5.87;;
5995;SDS011;3026;53.612;7.278;2023-11-21T11:11:12;8.47;;;5.17;;
5995;SDS011;3026;53.612;7.278;2023-11-21T11:13:43;7.90;;;5.33;;
5995;SDS011;3026;53.612;7.278;2023-11-21T11:16:11;9.80;;;5.10;;
5995;SDS011;3026;53.612;7.278;2023-11-21T11:18:42;10.20;;;4.93;;
5995;SDS011;3026;53.612;7.278;2023-11-21T11:21:12;7.83;;;5.07;;
5995;SDS011;3026;53.612;7.278;2023-11-21T11:23:55;6.33;;;4.40;;
5995;SDS011;3026;53.612;7.278;2023-11-21T11:26:37;5.70;;;4.03;;
5995;SDS011;3026;53.612;7.278;2023-11-21T11:29:14;7.67;;;4.47;;
5995;SDS011;3026;53.612;7.278;2023-11-21T11:31:51;5.97;;;4.47;;
5995;SDS011;3026;53.612;7.278;2023-11-21T11:34:30;7.27;;;3.70;;
5995;SDS011;3026;53.612;7.278;2023-11-21T11:37:00;6.67;;;3.60;;
5995;SDS011;3026;53.612;7.278;2023-11-21T11:39:29;6.00;;;3.70;;
5995;SDS011;3026;53.612;7.278;2023-11-21T11:42:00;5.60;;;3.60;;
5995;SDS011;3026;53.612;7.278;2023-11-21T11:44:49;4.43;;;3.63;;
5995;SDS011;3026;53.612;7.278;2023-11-21T11:47:27;6.73;;;3.50;;
5995;SDS011;3026;53.612;7.278;2023-11-21T11:49:59;7.10;;;3.83;;
5995;SDS011;3026;53.612;7.278;2023-11-21T11:52:35;5.97;;;3.67;;
5995;SDS011;3026;53.612;7.278;2023-11-21T11:55:07;7.67;;;3.67;;
5995;SDS011;3026;53.612;7.278;2023-11-21T11:57:46;6.80;;;3.73;;
5995;SDS011;3026;53.612;7.278;2023-11-21T12:00:16;6.20;;;3.77;;
5995;SDS011;3026;53.612;7.278;2023-11-21T12:02:46;6.00;;;3.93;;
5995;SDS011;3026;53.612;7.278;2023-11-21T12:05:14;6.33;;;4.30;;
5995;SDS011;3026;53.612;7.278;2023-11-21T12:07:45;8.10;;;3.80;;
5995;SDS011;3026;53.612;7.278;2023-11-21T12:10:14;6.50;;;3.57;;
5995;SDS011;3026;53.612;7.278;2023-11-21T12:12:46;5.13;;;3.77;;
5995;SDS011;3026;53.612;7.278;2023-11-21T12:15:13;4.83;;;3.80;;
5995;SDS011;3026;53.612;7.278;2023-11-21T12:17:41;6.30;;;3.53;;
5995;SDS011;3026;53.612;7.278;2023-11-21T12:20:09;8.13;;;3.60;;
5995;SDS011;3026;53.612;7.278;2023-11-21T12:22:44;6.30;;;3.77;;
5995;SDS011;3026;53.612;7.278;2023-11-21T12:25:14;5.53;;;4.10;;
5995;SDS011;3026;53.612;7.278;2023-11-21T12:27:47;6.83;;;3.80;;
5995;SDS011;3026;53.612;7.278;2023-11-21T12:30:15;4.50;;;3.23;;
5995;SDS011;3026;53.612;7.278;2023-11-21T12:32:44;4.97;;;4.00;;
5995;SDS011;3026;53.612;7.278;2023-11-21T12:35:14;4.90;;;3.77;;
5995;SDS011;3026;53.612;7.278;2023-11-21T12:37:45;6.43;;;4.33;;
5995;SDS011;3026;53.612;7.278;2023-11-21T12:40:13;6.63;;;3.93;;
5995;SDS011;3026;53.612;7.278;2023-11-21T12:42:43;8.30;;;4.63;;
5995;SDS011;3026;53.612;7.278;2023-11-21T12:45:19;4.63;;;3.70;;
5995;SDS011;3026;53.612;7.278;2023-11-21T12:47:48;8.70;;;4.67;;
5995;SDS011;3026;53.612;7.278;2023-11-21T12:50:18;5.63;;;4.17;;
5995;SDS011;3026;53.612;7.278;2023-11-21T12:52:49;8.87;;;4.53;;
5995;SDS011;3026;53.612;7.278;2023-11-21T12:55:21;4.53;;;4.07;;
5995;SDS011;3026;53.612;7.278;2023-11-21T12:57:49;6.43;;;4.00;;
5995;SDS011;3026;53.612;7.278;2023-11-21T13:00:27;6.03;;;3.47;;
5995;SDS011;3026;53.612;7.278;2023-11-21T13:02:56;5.90;;;3.70;;
5995;SDS011;3026;53.612;7.278;2023-11-21T13:05:24;4.10;;;3.47;;
5995;SDS011;3026;53.612;7.278;2023-11-21T13:07:53;5.47;;;4.30;;
5995;SDS011;3026;53.612;7.278;2023-11-21T13:10:23;5.27;;;4.00;;
5995;SDS011;3026;53.612;7.278;2023-11-21T13:12:52;9.83;;;3.90;;
5995;SDS011;3026;53.612;7.278;2023-11-21T13:15:22;12.00;;;4.20;;
5995;SDS011;3026;53.612;7.278;2023-11-21T13:17:50;5.27;;;3.97;;
5995;SDS011;3026;53.612;7.278;2023-11-21T13:20:19;4.97;;;3.73;;
5995;SDS011;3026;53.612;7.278;2023-11-21T13:22:47;6.70;;;3.70;;
5995;SDS011;3026;53.612;7.278;2023-11-21T13:25:14;5.90;;;3.60;;
5995;SDS011;3026;53.612;7.278;2023-11-21T13:27:43;4.53;;;3.43;;
5995;SDS011;3026;53.612;7.278;2023-11-21T13:30:12;5.43;;;4.00;;
5995;SDS011;3026;53.612;7.278;2023-11-21T13:32:44;6.17;;;4.20;;
5995;SDS011;3026;53.612;7.278;2023-11-21T13:35:12;4.83;;;3.97;;
5995;SDS011;3026;53.612;7.278;2023-11-21T13:37:49;6.90;;;4.07;;
5995;SDS011;3026;53.612;7.278;2023-11-21T13:40:21;8.77;;;4.07;;
5995;SDS011;3026;53.612;7.278;2023-11-21T13:42:53;5.77;;;3.83;;
5995;SDS011;3026;53.612;7.278;2023-11-21T13:45:21;5.50;;;3.43;;
5995;SDS011;3026;53.612;7.278;2023-11-21T13:47:53;10.10;;;4.10;;
5995;SDS011;3026;53.612;7.278;2023-11-21T13:50:24;6.27;;;3.40;;
5995;SDS011;3026;53.612;7.278;2023-11-21T13:52:57;3.73;;;3.10;;
5995;SDS011;3026;53.612;7.278;2023-11-21T13:55:28;8.27;;;3.70;;
5995;SDS011;3026;53.612;7.278;2023-11-21T13:57:56;4.97;;;4.00;;
5995;SDS011;3026;53.612;7.278;2023-11-21T14:00:24;5.50;;;3.60;;
5995;SDS011;3026;53.612;7.278;2023-11-21T14:03:11;4.93;;;3.63;;
5995;SDS011;3026;53.612;7.278;2023-11-21T14:05:46;5.10;;;3.40;;
5995;SDS011;3026;53.612;7.278;2023-11-21T14:08:17;6.73;;;3.43;;
5995;SDS011;3026;53.612;7.278;2023-11-21T14:10:46;4.90;;;3.57;;
5995;SDS011;3026;53.612;7.278;2023-11-21T14:13:25;6.13;;;3.53;;
5995;SDS011;3026;53.612;7.278;2023-11-21T14:15:52;5.30;;;3.33;;
5995;SDS011;3026;53.612;7.278;2023-11-21T14:18:28;4.73;;;3.67;;
5995;SDS011;3026;53.612;7.278;2023-11-21T14:21:01;6.13;;;3.97;;
5995;SDS011;3026;53.612;7.278;2023-11-21T14:23:29;6.13;;;4.47;;
5995;SDS011;3026;53.612;7.278;2023-11-21T14:25:56;5.97;;;4.10;;
5995;SDS011;3026;53.612;7.278;2023-11-21T14:28:23;4.93;;;4.07;;
5995;SDS011;3026;53.612;7.278;2023-11-21T14:30:50;6.10;;;4.17;;
5995;SDS011;3026;53.612;7.278;2023-11-21T14:33:18;6.23;;;4.07;;
5995;SDS011;3026;53.612;7.278;2023-11-21T14:35:47;8.30;;;4.93;;
5995;SDS011;3026;53.612;7.278;2023-11-21T14:38:15;5.97;;;4.50;;
5995;SDS011;3026;53.612;7.278;2023-11-21T14:40:45;7.43;;;4.50;;
5995;SDS011;3026;53.612;7.278;2023-11-21T14:43:13;7.30;;;5.07;;
5995;SDS011;3026;53.612;7.278;2023-11-21T14:45:44;6.17;;;4.33;;
5995;SDS011;3026;53.612;7.278;2023-11-21T14:48:11;7.00;;;5.23;;
5995;SDS011;3026;53.612;7.278;2023-11-21T14:50:47;12.37;;;5.47;;
5995;SDS011;3026;53.612;7.278;2023-11-21T14:53:32;9.53;;;5.53;;
5995;SDS011;3026;53.612;7.278;2023-11-21T14:56:18;10.23;;;5.80;;
5995;SDS011;3026;53.612;7.278;2023-11-21T14:58:52;8.47;;;6.07;;
5995;SDS011;3026;53.612;7.278;2023-11-21T15:01:23;10.10;;;6.50;;
5995;SDS011;3026;53.612;7.278;2023-11-21T15:04:09;13.87;;;6.47;;
5995;SDS011;3026;53.612;7.278;2023-11-21T15:06:50;10.93;;;6.33;;
5995;SDS011;3026;53.612;7.278;2023-11-21T15:09:21;8.93;;;6.17;;
5995;SDS011;3026;53.612;7.278;2023-11-21T15:12:05;7.63;;;5.63;;
5995;SDS011;3026;53.612;7.278;2023-11-21T15:14:41;7.13;;;5.43;;
5995;SDS011;3026;53.612;7.278;2023-11-21T15:17:15;10.83;;;6.73;;